Time;durP1;ratioP1;P1;durP2;ratioP2;P2;SDS_P1;SDS_P2;PMS_P1;PMS_P2;Temp;Humidity;BMP_temperature;BMP_pressure;BME280_temperature;BME280_humidity;BME280_pressure;Samples;Min_cycle;Max_cycle;Signal;HPM_P1;HPM_P2
2024/04/25 00:00:55;;;;;;;20.50;4.85;;;;;;;2.97;100.00;100747.03;5349082;26;20328;-68
2024/04/25 00:03:20;;;;;;;21.27;5.05;;;;;;;3.07;100.00;100750.84;5348413;26;20128;-70
2024/04/25 00:05:46;;;;;;;18.67;4.78;;;;;;;3.22;100.00;100746.94;5348957;26;20461;-70
2024/04/25 00:08:11;;;;;;;19.73;4.80;;;;;;;3.31;100.00;100745.50;5348745;26;20045;-70
2024/04/25 00:10:39;;;;;;;18.90;4.55;;;;;;;3.38;100.00;100733.53;5348759;26;20009;-71
2024/04/25 00:13:05;;;;;;;19.17;4.57;;;;;;;3.39;100.00;100731.81;5348294;26;19996;-71
2024/04/25 00:15:31;;;;;;;17.83;4.65;;;;;;;3.44;100.00;100733.72;5346968;26;19997;-70
2024/04/25 00:17:56;;;;;;;19.88;4.85;;;;;;;3.48;100.00;100734.69;5348405;26;20004;-69
2024/04/25 00:20:22;;;;;;;18.83;4.60;;;;;;;3.45;100.00;100724.16;5348662;26;19997;-65
2024/04/25 00:22:47;;;;;;;19.45;4.50;;;;;;;3.44;100.00;100714.56;5348231;26;20452;-70
2024/04/25 00:25:12;;;;;;;17.25;4.55;;;;;;;3.41;100.00;100728.41;5390820;26;19997;-69
2024/04/25 00:27:38;;;;;;;20.17;4.50;;;;;;;3.49;100.00;100726.03;5348728;26;19993;-68
2024/04/25 00:30:04;;;;;;;16.67;4.50;;;;;;;3.45;100.00;100719.84;5348285;26;20012;-66
2024/04/25 00:32:30;;;;;;;18.08;4.53;;;;;;;3.37;100.00;100718.69;5348048;26;20132;-66
2024/04/25 00:34:57;;;;;;;16.73;4.40;;;;;;;3.27;100.00;100709.66;5390973;26;20036;-67
2024/04/25 00:37:24;;;;;;;16.45;4.03;;;;;;;3.21;100.00;100716.44;5348507;26;20008;-65
2024/04/25 00:39:50;;;;;;;18.80;4.70;;;;;;;3.07;100.00;100711.66;5339511;26;20009;-67
2024/04/25 00:42:23;;;;;;;18.50;4.50;;;;;;;3.02;100.00;100713.22;5389780;26;20340;-70
2024/04/25 00:44:49;;;;;;;18.35;4.50;;;;;;;2.95;100.00;100713.84;5348277;26;20033;-70
2024/04/25 00:47:19;;;;;;;18.42;4.22;;;;;;;2.88;100.00;100714.47;5348186;26;19997;-69
2024/04/25 00:49:46;;;;;;;18.38;4.20;;;;;;;2.84;100.00;100708.28;5348138;26;20521;-69
2024/04/25 00:52:15;;;;;;;17.25;4.20;;;;;;;2.76;100.00;100705.38;5348332;26;19997;-69
2024/04/25 00:54:42;;;;;;;18.98;4.32;;;;;;;2.72;100.00;100707.84;5347719;26;20046;-69
2024/04/25 00:57:10;;;;;;;17.20;4.40;;;;;;;2.65;100.00;100712.00;5348014;26;19997;-66
2024/04/25 00:59:39;;;;;;;18.33;4.43;;;;;;;2.59;100.00;100703.94;5346262;26;19997;-66
2024/04/25 01:02:07;;;;;;;16.25;4.10;;;;;;;2.58;100.00;100704.78;5347949;26;20005;-65
2024/04/25 01:04:35;;;;;;;16.45;4.07;;;;;;;2.58;100.00;100710.88;5347880;26;20008;-66
2024/04/25 01:07:01;;;;;;;17.25;4.28;;;;;;;2.59;100.00;100709.16;5348147;26;20444;-66
2024/04/25 01:09:28;;;;;;;19.85;4.40;;;;;;;2.59;100.00;100703.94;5347978;26;20001;-65
2024/04/25 01:11:53;;;;;;;18.15;4.50;;;;;;;2.56;100.00;100712.56;5347566;26;20071;-69
2024/04/25 01:14:19;;;;;;;17.80;3.80;;;;;;;2.58;100.00;100710.88;5347775;26;20008;-65
2024/04/25 01:16:44;;;;;;;15.95;3.88;;;;;;;2.56;100.00;100709.97;5347579;26;19997;-70
2024/04/25 01:19:09;;;;;;;17.35;4.05;;;;;;;2.57;100.00;100706.50;5345855;26;20074;-68
2024/04/25 01:21:35;;;;;;;15.25;4.15;;;;;;;2.55;100.00;100699.44;5347768;26;20000;-65
2024/04/25 01:24:02;;;;;;;18.20;4.40;;;;;;;2.60;100.00;100697.88;5346333;26;20004;-66
2024/04/25 01:26:28;;;;;;;15.95;3.90;;;;;;;2.64;100.00;100701.50;5347779;26;19997;-66
2024/04/25 01:28:55;;;;;;;17.17;4.00;;;;;;;2.60;100.00;100690.06;5347392;26;20005;-70
2024/04/25 01:31:21;;;;;;;19.08;4.32;;;;;;;2.60;100.00;100693.53;5340502;26;20008;-66
2024/04/25 01:33:47;;;;;;;17.00;4.05;;;;;;;2.63;100.00;100684.06;5347902;26;20004;-67
2024/04/25 01:36:13;;;;;;;16.15;4.20;;;;;;;2.63;100.00;100679.72;5347312;26;20007;-65
2024/04/25 01:38:38;;;;;;;17.40;4.18;;;;;;;2.66;100.00;100674.59;5347321;26;19996;-66
2024/04/25 01:41:04;;;;;;;19.77;4.53;;;;;;;2.66;100.00;100682.41;5347273;26;20001;-68
2024/04/25 01:43:29;;;;;;;17.77;4.20;;;;;;;2.67;100.00;100671.16;5347437;26;20021;-69
2024/04/25 01:45:54;;;;;;;18.40;3.88;;;;;;;2.68;100.00;100674.63;5347246;26;20001;-69
2024/04/25 01:48:20;;;;;;;17.98;4.07;;;;;;;2.65;100.00;100664.09;5340249;26;20008;-69
2024/04/25 01:50:45;;;;;;;19.45;4.15;;;;;;;2.66;100.00;100671.09;5347407;26;20003;-70
2024/04/25 01:53:10;;;;;;;20.67;4.50;;;;;;;2.63;100.00;100666.66;5316299;26;19997;-70
2024/04/25 01:55:36;;;;;;;15.10;4.30;;;;;;;2.69;100.00;100665.97;5345755;26;20448;-70
2024/04/25 01:58:02;;;;;;;15.90;4.00;;;;;;;2.69;100.00;100664.25;5346954;26;20008;-69
2024/04/25 02:00:27;;;;;;;18.02;4.38;;;;;;;2.68;100.00;100670.34;5347386;26;19993;-65
2024/04/25 02:02:52;;;;;;;17.65;4.53;;;;;;;2.68;100.00;100667.72;5347104;26;20016;-65
2024/04/25 02:05:18;;;;;;;17.13;4.05;;;;;;;2.61;100.00;100664.00;5347192;26;20335;-65
2024/04/25 02:07:43;;;;;;;16.20;4.00;;;;;;;2.56;100.00;100654.25;5347056;26;20001;-65
2024/04/25 02:10:08;;;;;;;17.60;4.30;;;;;;;2.50;100.00;100659.25;5346748;26;19997;-66
2024/04/25 02:12:34;;;;;;;16.20;4.10;;;;;;;2.43;100.00;100661.66;5346921;26;20040;-70
2024/04/25 02:14:59;;;;;;;18.55;4.43;;;;;;;2.42;100.00;100657.28;5346940;26;20362;-70
2024/04/25 02:17:25;;;;;;;18.00;4.30;;;;;;;2.37;100.00;100658.81;5347067;26;20001;-66
2024/04/25 02:19:50;;;;;;;16.63;3.97;;;;;;;2.37;100.00;100661.44;5346858;26;20004;-69
2024/04/25 02:25:15;;;;;;;16.25;4.40;;;;;;;2.26;100.00;100657.59;5342147;26;20451;-68
2024/04/25 02:27:40;;;;;;;17.58;4.65;;;;;;;2.24;100.00;100661.84;5347127;26;20046;-68
2024/04/25 02:30:07;;;;;;;19.00;4.32;;;;;;;2.20;100.00;100657.34;5346789;26;19997;-66
2024/04/25 02:32:33;;;;;;;15.73;4.00;;;;;;;2.14;100.00;100662.34;5344750;26;20459;-65
2024/04/25 02:34:58;;;;;;;18.67;4.32;;;;;;;2.12;100.00;100658.81;5389111;26;20000;-66
2024/04/25 02:37:23;;;;;;;18.98;4.57;;;;;;;2.08;100.00;100653.50;5346480;26;20411;-68
2024/04/25 02:39:49;;;;;;;19.25;4.85;;;;;;;2.10;100.00;100656.16;5346692;26;20012;-67
2024/04/25 02:42:15;;;;;;;18.90;4.53;;;;;;;2.08;100.00;100650.88;5346422;26;20024;-70
2024/04/25 02:44:40;;;;;;;17.75;4.60;;;;;;;2.10;100.00;100645.72;5344910;26;20012;-71
2024/04/25 02:47:05;;;;;;;18.05;4.40;;;;;;;2.15;100.00;100645.88;5346863;26;20012;-70
2024/04/25 02:49:30;;;;;;;18.20;4.28;;;;;;;2.19;100.00;100642.56;5346497;26;19996;-65
2024/04/25 02:51:56;;;;;;;19.38;4.90;;;;;;;2.26;100.00;100650.63;5346224;26;19997;-65
2024/04/25 02:54:21;;;;;;;17.60;4.88;;;;;;;2.35;100.00;100637.03;5346443;26;20070;-65
2024/04/25 02:56:46;;;;;;;16.77;4.40;;;;;;;2.43;100.00;100640.78;5344359;26;19997;-65
2024/04/25 02:59:12;;;;;;;18.42;4.85;;;;;;;2.51;100.00;100635.81;5346096;26;20001;-69
2024/04/25 03:01:37;;;;;;;17.33;4.38;;;;;;;2.55;100.00;100634.19;5346533;26;20005;-67
2024/04/25 03:04:03;;;;;;;17.30;4.50;;;;;;;2.60;100.00;100637.84;5345963;26;20394;-69
2024/04/25 03:06:29;;;;;;;17.48;4.43;;;;;;;2.65;100.00;100622.34;5346346;26;20001;-65
2024/04/25 03:08:55;;;;;;;17.05;4.57;;;;;;;2.68;100.00;100631.19;5346192;26;20012;-66
2024/04/25 03:11:20;;;;;;;16.88;4.30;;;;;;;2.75;100.00;100632.25;5346278;26;20060;-66
2024/04/25 03:13:46;;;;;;;15.77;4.30;;;;;;;2.76;100.00;100624.47;5346173;26;20455;-66
2024/04/25 03:16:11;;;;;;;15.13;4.18;;;;;;;2.76;100.00;100623.59;5346229;26;19993;-66
2024/04/25 03:18:36;;;;;;;16.48;4.43;;;;;;;2.75;100.00;100620.09;5345846;26;19997;-68
2024/04/25 03:21:06;;;;;;;15.70;4.18;;;;;;;2.72;100.00;100625.22;5345995;26;20004;-69
2024/04/25 03:23:35;;;;;;;15.10;4.43;;;;;;;2.67;100.00;100626.78;5345798;26;19997;-70
2024/04/25 03:26:04;;;;;;;16.05;4.40;;;;;;;2.70;100.00;100620.78;5345617;26;20459;-70
2024/04/25 03:28:32;;;;;;;18.02;4.78;;;;;;;2.73;100.00;100632.19;5345469;26;19997;-65
2024/04/25 03:30:57;;;;;;;18.38;4.80;;;;;;;2.76;100.00;100623.59;5345842;26;20348;-68
2024/04/25 03:33:23;;;;;;;17.27;4.60;;;;;;;2.78;100.00;100624.50;5345628;26;19993;-65
2024/04/25 03:35:49;;;;;;;18.45;5.13;;;;;;;2.79;100.00;100627.16;5345790;26;19997;-65
2024/04/25 03:38:15;;;;;;;18.67;5.00;;;;;;;2.83;100.00;100622.94;5345727;26;19997;-66
2024/04/25 03:40:40;;;;;;;19.98;5.20;;;;;;;2.84;100.00;100616.91;5345154;26;20009;-65
2024/04/25 03:43:07;;;;;;;17.83;5.15;;;;;;;2.81;100.00;100618.50;5345281;26;20029;-65
2024/04/25 03:45:33;;;;;;;20.00;5.38;;;;;;;2.82;100.00;100620.28;5345736;26;20063;-69
2024/04/25 03:47:58;;;;;;;19.88;6.30;;;;;;;2.84;100.00;100621.22;5347777;26;19993;-70
2024/04/25 03:50:24;;;;;;;19.00;5.78;;;;;;;2.83;100.00;100616.84;5348831;26;20052;-65
2024/04/25 03:52:50;;;;;;;19.52;6.53;;;;;;;2.85;100.00;100612.56;5348839;26;20000;-65
2024/04/25 03:55:16;;;;;;;21.83;8.40;;;;;;;2.88;100.00;100603.06;5346787;26;19997;-65
2024/04/25 03:57:42;;;;;;;20.83;8.15;;;;;;;2.91;100.00;100610.13;5349037;26;19997;-65
2024/04/25 04:00:09;;;;;;;21.27;8.40;;;;;;;2.90;100.00;100609.25;5390902;26;20008;-65
2024/04/25 04:02:34;;;;;;;22.38;9.10;;;;;;;2.95;100.00;100612.00;5348703;26;19997;-66
2024/04/25 04:05:00;;;;;;;22.92;9.98;;;;;;;2.96;100.00;100608.56;5346944;26;19993;-64
2024/04/25 04:07:27;;;;;;;22.20;9.70;;;;;;;2.99;100.00;100608.66;5348719;26;20001;-66
2024/04/25 04:09:53;;;;;;;22.20;9.57;;;;;;;2.99;100.00;100606.03;5341846;26;20051;-69
2024/04/25 04:12:18;;;;;;;22.02;9.30;;;;;;;3.00;100.00;100604.31;5348882;26;20009;-65
2024/04/25 04:14:43;;;;;;;22.60;9.40;;;;;;;3.00;100.00;100605.22;5348657;26;19996;-70
2024/04/25 04:17:09;;;;;;;20.98;8.82;;;;;;;2.97;100.00;100589.41;5348474;26;19997;-65
2024/04/25 04:19:34;;;;;;;21.88;9.15;;;;;;;2.95;100.00;100586.75;5346944;26;20025;-65
2024/04/25 04:21:59;;;;;;;20.48;9.02;;;;;;;2.95;100.00;100583.28;5348549;26;20007;-65
2024/04/25 04:24:25;;;;;;;22.52;9.48;;;;;;;2.93;100.00;100582.34;5348504;26;20009;-66
2024/04/25 04:26:50;;;;;;;22.33;9.93;;;;;;;2.87;100.00;100579.53;5348711;26;19997;-70
2024/04/25 04:29:15;;;;;;;21.27;8.80;;;;;;;2.90;100.00;100585.75;5348273;26;20454;-68
2024/04/25 04:31:41;;;;;;;21.13;8.70;;;;;;;2.90;100.00;100592.72;5348424;26;20001;-67
2024/04/25 04:34:07;;;;;;;20.88;8.60;;;;;;;2.93;100.00;100583.22;5348714;26;20000;-67
2024/04/25 04:36:34;;;;;;;20.30;7.72;;;;;;;2.95;100.00;100578.94;5346735;26;19997;-65
2024/04/25 04:39:04;;;;;;;20.45;7.35;;;;;;;2.99;100.00;100581.66;5389369;26;20005;-65
2024/04/25 04:41:30;;;;;;;20.40;6.65;;;;;;;3.02;100.00;100579.16;5348530;26;20004;-68
2024/04/25 04:43:55;;;;;;;19.33;6.50;;;;;;;3.08;100.00;100592.38;5348398;26;19997;-68
2024/04/25 04:46:20;;;;;;;18.58;6.18;;;;;;;3.11;100.00;100582.91;5347995;26;20428;-70
2024/04/25 04:48:48;;;;;;;20.73;6.50;;;;;;;3.13;100.00;100578.63;5348387;26;20531;-70
2024/04/25 04:51:14;;;;;;;19.10;6.22;;;;;;;3.15;100.00;100581.28;5389599;26;19997;-71
2024/04/25 04:53:39;;;;;;;19.77;6.75;;;;;;;3.14;100.00;100575.16;5347969;26;20498;-69
2024/04/25 04:56:05;;;;;;;20.33;7.30;;;;;;;3.16;100.00;100579.53;5347900;26;19997;-70
2024/04/25 04:58:31;;;;;;;19.98;7.43;;;;;;;3.16;100.00;100584.78;5346220;26;20459;-70
2024/04/25 05:00:56;;;;;;;20.83;8.80;;;;;;;3.15;100.00;100581.28;5347978;26;19997;-65
2024/04/25 05:03:21;;;;;;;21.40;9.25;;;;;;;3.12;100.00;100583.81;5347813;26;20005;-65
2024/04/25 05:05:47;;;;;;;23.30;10.25;;;;;;;3.10;100.00;100585.47;5347675;26;20000;-65
2024/04/25 05:08:12;;;;;;;22.27;10.50;;;;;;;3.10;100.00;100588.06;5348055;26;20004;-65
2024/04/25 05:10:37;;;;;;;22.85;11.00;;;;;;;3.06;100.00;100594.94;5347600;26;20040;-68
2024/04/25 05:13:03;;;;;;;22.88;11.35;;;;;;;3.03;100.00;100588.72;5347490;26;20005;-67
2024/04/25 05:15:30;;;;;;;24.48;11.52;;;;;;;3.04;100.00;100583.56;5348055;26;20013;-65
2024/04/25 05:17:55;;;;;;;23.60;12.40;;;;;;;3.05;100.00;100589.69;5347852;26;20008;-66
2024/04/25 05:20:21;;;;;;;24.58;13.13;;;;;;;3.06;100.00;100592.34;5347751;26;20335;-66
2024/04/25 05:22:46;;;;;;;24.45;13.68;;;;;;;3.10;100.00;100582.84;5347940;26;20312;-66
2024/04/25 05:25:11;;;;;;;26.48;13.88;;;;;;;3.12;100.00;100589.03;5347729;26;19997;-66
2024/04/25 05:27:37;;;;;;;26.50;14.00;;;;;;;3.11;100.00;100590.72;5347738;26;20070;-68
2024/04/25 05:30:06;;;;;;;25.65;14.38;;;;;;;3.16;100.00;100595.22;5347838;26;20336;-70
2024/04/25 05:32:32;;;;;;;24.80;13.88;;;;;;;3.21;100.00;100596.25;5347624;26;20001;-69
2024/04/25 05:34:57;;;;;;;25.85;14.52;;;;;;;3.23;100.00;100598.09;5347446;26;20011;-67
2024/04/25 05:37:26;;;;;;;25.05;13.98;;;;;;;3.28;100.00;100596.47;5347753;26;19997;-68
2024/04/25 05:39:51;;;;;;;25.92;14.10;;;;;;;3.30;100.00;100591.31;5347465;26;20008;-69
2024/04/25 05:42:17;;;;;;;25.73;14.32;;;;;;;3.36;100.00;100590.59;5389661;26;20001;-68
2024/04/25 05:44:47;;;;;;;24.85;14.10;;;;;;;3.39;100.00;100583.72;5347583;26;20005;-66
2024/04/25 05:47:14;;;;;;;24.20;12.98;;;;;;;3.44;100.00;100586.50;5347104;26;20029;-66
2024/04/25 05:49:40;;;;;;;25.38;13.43;;;;;;;3.50;100.00;100578.81;5347172;26;20037;-66
2024/04/25 05:52:06;;;;;;;24.95;12.77;;;;;;;3.47;100.00;100579.63;5347324;26;20137;-67
2024/04/25 05:54:31;;;;;;;24.83;13.13;;;;;;;3.49;100.00;100585.78;5347307;26;20004;-70
2024/04/25 05:56:57;;;;;;;25.00;12.25;;;;;;;3.52;100.00;100584.97;5347010;26;20000;-66
2024/04/25 05:59:22;;;;;;;24.02;11.65;;;;;;;3.57;100.00;100587.72;5347487;26;20429;-65
2024/04/25 06:01:47;;;;;;;22.48;10.70;;;;;;;3.54;100.00;100587.63;5347147;26;20008;-66
2024/04/25 06:04:13;;;;;;;23.48;10.40;;;;;;;3.63;100.00;100590.53;5389710;26;19997;-65
2024/04/25 06:06:38;;;;;;;23.05;10.45;;;;;;;3.69;100.00;100588.06;5346873;26;20134;-66
2024/04/25 06:09:03;;;;;;;21.98;10.25;;;;;;;3.76;100.00;100587.41;5346864;26;19997;-66
2024/04/25 06:11:32;;;;;;;23.52;9.90;;;;;;;3.82;100.00;100577.09;5346503;26;20000;-66
2024/04/25 06:13:58;;;;;;;22.38;9.27;;;;;;;3.90;100.00;100571.19;5347158;26;20007;-69
2024/04/25 06:16:23;;;;;;;22.30;9.70;;;;;;;4.06;100.00;100569.88;5340121;26;19996;-71
2024/04/25 06:18:49;;;;;;;22.20;9.50;;;;;;;4.18;100.00;100573.72;5346966;26;20001;-67
2024/04/25 06:21:14;;;;;;;22.13;9.10;;;;;;;4.33;100.00;100573.22;5346552;26;20332;-66
2024/04/25 06:23:39;;;;;;;22.27;8.90;;;;;;;4.47;100.00;100576.19;5347026;26;20001;-70
2024/04/25 06:26:05;;;;;;;21.25;8.70;;;;;;;4.49;100.00;100574.50;5347163;26;20029;-66
2024/04/25 06:28:30;;;;;;;21.60;8.48;;;;;;;4.48;100.00;100567.47;5346816;26;20000;-66
2024/04/25 06:30:59;;;;;;;21.35;8.00;;;;;;;4.46;100.00;100574.41;5344941;26;20004;-67
2024/04/25 06:33:25;;;;;;;21.70;7.88;;;;;;;4.52;100.00;100568.44;5340120;26;20083;-67
2024/04/25 06:35:51;;;;;;;22.15;7.30;;;;;;;4.54;100.00;100567.66;5346781;26;20005;-66
2024/04/25 06:38:16;;;;;;;20.98;8.07;;;;;;;4.59;100.00;100565.13;5344928;26;20029;-66
2024/04/25 06:40:42;;;;;;;20.42;7.40;;;;;;;4.60;100.00;100560.78;5346512;26;20001;-69
2024/04/25 06:43:07;;;;;;;19.80;7.70;;;;;;;4.55;100.00;100558.03;5346713;26;20008;-69
2024/04/25 06:45:33;;;;;;;21.27;7.90;;;;;;;4.58;100.00;100557.25;5346735;26;20448;-67
2024/04/25 06:47:58;;;;;;;20.77;8.18;;;;;;;4.66;100.00;100560.91;5338111;26;20001;-66
2024/04/25 06:50:23;;;;;;;21.83;7.82;;;;;;;4.68;100.00;100551.38;5346125;26;20011;-66
2024/04/25 06:52:49;;;;;;;21.05;8.23;;;;;;;4.63;100.00;100550.38;5346314;26;20024;-66
2024/04/25 06:55:14;;;;;;;20.17;7.72;;;;;;;4.75;100.00;100544.53;5388858;26;20016;-67
2024/04/25 06:57:40;;;;;;;21.17;8.15;;;;;;;4.84;100.00;100539.53;5346430;26;20534;-69
2024/04/25 07:00:06;;;;;;;20.13;7.43;;;;;;;4.94;100.00;100545.88;5388714;26;20024;-67
2024/04/25 07:02:31;;;;;;;19.77;7.63;;;;;;;5.04;100.00;100545.22;5346263;26;19993;-69
2024/04/25 07:04:58;;;;;;;20.35;7.50;;;;;;;4.87;100.00;100537.84;5346255;26;19997;-70
2024/04/25 07:07:23;;;;;;;18.92;7.05;;;;;;;4.64;100.00;100536.44;5346577;26;20066;-66
2024/04/25 07:09:49;;;;;;;20.05;6.45;;;;;;;4.63;100.00;100545.13;5346258;26;20008;-69
2024/04/25 07:12:14;;;;;;;19.80;6.85;;;;;;;4.74;100.00;100548.91;5346140;26;20403;-66
2024/04/25 07:14:39;;;;;;;20.98;7.10;;;;;;;4.79;100.00;100542.03;5346296;26;20012;-66
2024/04/25 07:17:05;;;;;;;19.35;7.32;;;;;;;4.89;100.00;100548.34;5345925;26;20068;-67
2024/04/25 07:19:30;;;;;;;20.85;6.80;;;;;;;4.84;100.00;100543.00;5345969;26;20001;-70
2024/04/25 07:21:57;;;;;;;18.02;6.47;;;;;;;4.93;100.00;100541.47;5346708;26;20369;-70
2024/04/25 07:24:23;;;;;;;19.20;6.68;;;;;;;5.14;100.00;100535.81;5342530;26;20005;-70
2024/04/25 07:26:49;;;;;;;18.52;5.93;;;;;;;5.32;100.00;100536.19;5349294;26;20502;-70
2024/04/25 07:29:15;;;;;;;18.40;6.22;;;;;;;5.53;100.00;100533.16;5349228;26;20001;-71
2024/04/25 07:31:40;;;;;;;18.45;5.65;;;;;;;5.62;100.00;100531.53;5349211;26;20091;-71
2024/04/25 07:34:05;;;;;;;18.80;5.10;;;;;;;5.63;100.00;100539.44;5347416;26;20011;-70
2024/04/25 07:36:35;;;;;;;17.60;5.10;;;;;;;5.59;100.00;100538.50;5349411;26;20008;-69
2024/04/25 07:39:02;;;;;;;16.10;5.38;;;;;;;5.51;100.00;100540.06;5348935;26;20074;-67
2024/04/25 07:41:31;;;;;;;18.30;5.90;;;;;;;5.57;100.00;100537.56;5348756;26;20025;-68
2024/04/25 07:44:00;;;;;;;16.80;5.43;;;;;;;5.72;100.00;100541.34;5349014;26;20001;-70
2024/04/25 07:46:25;;;;;;;18.52;5.80;;;;;;;5.73;100.00;100533.50;5342762;26;20059;-69
2024/04/25 07:48:51;;;;;;;18.55;6.40;;;;;;;5.78;100.00;100530.97;5348697;26;20448;-70
2024/04/25 07:51:16;;;;;;;19.35;6.90;;;;;;;5.79;100.00;100535.38;5347524;26;20039;-68
2024/04/25 07:53:42;;;;;;;20.05;7.43;;;;;;;5.83;100.00;100536.31;5348983;26;20001;-67
2024/04/25 07:56:07;;;;;;;19.77;7.35;;;;;;;5.85;100.00;100535.47;5348571;26;20009;-69
2024/04/25 07:58:33;;;;;;;19.20;7.45;;;;;;;5.81;100.00;100533.69;5348801;26;20475;-66
2024/04/25 08:00:58;;;;;;;20.58;7.90;;;;;;;5.88;100.00;100530.31;5348759;26;20573;-66
2024/04/25 08:03:24;;;;;;;21.70;8.02;;;;;;;6.00;100.00;100534.03;5349336;26;20085;-66
2024/04/25 08:05:52;;;;;;;19.95;8.18;;;;;;;6.15;100.00;100534.31;5348899;26;20387;-66
2024/04/25 08:08:20;;;;;;;19.92;7.68;;;;;;;6.34;100.00;100547.75;5348673;26;19997;-66
2024/04/25 08:10:48;;;;;;;21.23;7.90;;;;;;;6.39;100.00;100532.94;5348506;26;20007;-67
2024/04/25 08:13:14;;;;;;;20.30;7.60;;;;;;;6.42;100.00;100533.00;5348927;26;20107;-66
2024/04/25 08:15:39;;;;;;;20.90;8.10;;;;;;;6.42;100.00;100528.66;5348329;26;20004;-68
2024/04/25 08:18:04;;;;;;;20.55;7.88;;;;;;;6.35;100.00;100520.63;5348652;26;20001;-70
2024/04/25 08:20:30;;;;;;;20.83;8.52;;;;;;;6.52;100.00;100529.66;5348628;26;20436;-71
2024/04/25 08:22:56;;;;;;;20.92;8.13;;;;;;;6.52;100.00;100527.03;5346754;26;20005;-70
2024/04/25 08:25:21;;;;;;;19.58;7.63;;;;;;;6.46;100.00;100524.31;5318263;26;19993;-70
2024/04/25 08:27:46;;;;;;;21.23;8.07;;;;;;;6.49;100.00;100519.09;5348539;26;20001;-70
2024/04/25 08:30:12;;;;;;;20.67;7.43;;;;;;;6.73;100.00;100520.38;5348495;26;20004;-70
2024/04/25 08:32:37;;;;;;;19.98;7.00;;;;;;;7.21;100.00;100511.41;5348093;26;20005;-67
2024/04/25 08:35:03;;;;;;;17.23;5.88;;;;;;;7.56;100.00;100518.81;5348545;26;20001;-69
2024/04/25 08:37:28;;;;;;;19.00;5.30;;;;;;;7.74;100.00;100496.22;5348572;26;20100;-66
2024/04/25 08:39:54;;;;;;;19.52;5.45;;;;;;;7.73;100.00;100505.84;5348674;26;20017;-66
2024/04/25 08:42:19;;;;;;;18.60;5.30;;;;;;;7.66;100.00;100502.28;5347629;26;20001;-66
2024/04/25 08:44:46;;;;;;;17.52;5.10;;;;;;;7.81;100.00;100500.69;5348410;26;20097;-66
2024/04/25 08:47:12;;;;;;;18.00;5.03;;;;;;;7.93;100.00;100498.16;5348093;26;20011;-66
2024/04/25 08:49:39;;;;;;;18.23;4.90;;;;;;;7.98;100.00;100500.81;5346266;26;20432;-67
2024/04/25 08:52:05;;;;;;;15.80;4.50;;;;;;;8.18;100.00;100490.47;5347898;26;20021;-66
2024/04/25 08:54:32;;;;;;;15.90;4.30;;;;;;;8.08;100.00;100496.53;5348485;26;19993;-67
2024/04/25 08:56:57;;;;;;;16.77;4.50;;;;;;;8.14;100.00;100492.22;5347796;26;20008;-67
2024/04/25 08:59:25;;;;;;;16.42;4.60;;;;;;;8.42;100.00;100491.53;5341145;26;20433;-66
2024/04/25 09:01:50;;;;;;;14.40;4.20;;;;;;;8.49;100.00;100498.66;5347941;26;19997;-67
2024/04/25 09:04:19;;;;;;;13.57;3.80;;;;;;;8.30;100.00;100490.59;5346155;26;19997;-71
2024/04/25 09:06:45;;;;;;;15.10;4.05;;;;;;;8.25;100.00;100487.03;5340298;26;20001;-67
2024/04/25 09:09:11;;;;;;;14.20;3.90;;;;;;;8.19;100.00;100482.59;5347833;26;19996;-70
2024/04/25 09:11:40;;;;;;;13.95;3.67;;;;;;;8.10;100.00;100487.78;5347720;26;20025;-71
2024/04/25 09:14:05;;;;;;;16.05;4.10;;;;;;;8.03;100.00;100478.06;5347687;26;20021;-68
2024/04/25 09:16:36;;;;;;;15.43;4.07;;;;;;;8.03;100.00;100478.06;5347486;26;20079;-70
2024/04/25 09:19:02;;;;;;;15.02;3.90;;;;;;;8.09;100.00;100485.13;5347828;26;20004;-68
2024/04/25 09:21:27;;;;;;;13.82;4.05;;;;;;;8.11;100.00;100481.66;5347713;26;20001;-67
2024/04/25 09:23:52;;;;;;;16.95;4.40;;;;;;;8.17;100.00;100478.19;5347956;26;20004;-67
2024/04/25 09:26:18;;;;;;;17.10;4.70;;;;;;;8.32;100.00;100473.03;5347495;26;20012;-66
2024/04/25 09:28:43;;;;;;;17.65;5.30;;;;;;;8.55;100.00;100473.25;5347733;26;19993;-65
2024/04/25 09:31:09;;;;;;;17.10;5.60;;;;;;;8.67;100.00;100467.16;5347823;26;20071;-66
2024/04/25 09:33:34;;;;;;;18.10;5.55;;;;;;;8.66;100.00;100467.16;5347355;26;19992;-70
2024/04/25 09:36:00;;;;;;;17.02;5.78;;;;;;;8.84;100.00;100471.63;5347606;26;19996;-67
2024/04/25 09:38:27;;;;;;;18.42;6.03;;;;;;;9.01;100.00;100456.81;5347689;26;20011;-68
2024/04/25 09:40:52;;;;;;;18.98;6.22;;;;;;;9.43;100.00;100463.09;5347145;26;20004;-67
2024/04/25 09:43:19;;;;;;;18.67;6.00;;;;;;;9.82;100.00;100451.78;5347309;26;19996;-66
2024/04/25 09:45:45;;;;;;;18.00;5.95;;;;;;;9.83;100.00;100454.41;5346697;26;19997;-66
2024/04/25 09:48:17;;;;;;;19.38;6.15;;;;;;;9.19;100.00;100458.66;5347266;26;19993;-70
2024/04/25 09:50:53;;;;;;;19.58;6.35;;;;;;;9.28;100.00;100460.44;5340160;26;20404;-66
2024/04/25 09:53:21;;;;;;;19.15;6.80;;;;;;;9.42;100.00;100452.53;5341965;26;19992;-67
2024/04/25 09:55:47;;;;;;;18.13;6.25;;;;;;;9.29;100.00;100451.66;5347107;26;20447;-67
2024/04/25 09:58:37;;;;;;;18.85;6.00;;;;;;;9.09;100.00;100448.94;5348038;26;20008;-68
2024/04/25 10:01:04;;;;;;;18.83;6.15;;;;;;;9.00;100.00;100448.88;5344825;26;20005;-66
2024/04/25 10:03:31;;;;;;;18.73;6.40;;;;;;;8.71;100.00;100452.28;5347370;26;20005;-66
2024/04/25 10:05:58;;;;;;;20.45;6.50;;;;;;;8.40;100.00;100446.75;5347159;26;20071;-66
2024/04/25 10:08:23;;;;;;;20.65;7.93;;;;;;;8.06;100.00;100454.41;5347191;26;20020;-66
2024/04/25 10:10:48;;;;;;;21.08;8.60;;;;;;;7.03;100.00;100448.06;5347058;26;20001;-68
2024/04/25 10:13:19;;;;;;;21.33;8.98;;;;;;;6.51;100.00;100457.00;5347306;26;20424;-67
2024/04/25 10:15:50;;;;;;;21.50;9.70;;;;;;;6.14;100.00;100435.41;5340735;26;19997;-70
2024/04/25 10:18:16;;;;;;;21.02;9.27;;;;;;;6.29;100.00;100442.66;5340570;26;20029;-71
2024/04/25 10:20:41;;;;;;;21.75;10.18;;;;;;;6.34;100.00;100445.38;5347179;26;20067;-70
2024/04/25 10:23:09;;;;;;;22.05;9.82;;;;;;;6.30;100.00;100435.69;5345175;26;20464;-69
2024/04/25 10:25:34;;;;;;;20.40;8.63;;;;;;;6.46;100.00;100429.78;5347636;26;20007;-67
2024/04/25 10:28:02;;;;;;;20.70;7.70;;;;;;;6.71;100.00;100431.00;5347169;26;20328;-70
2024/04/25 10:30:28;;;;;;;18.92;7.03;;;;;;;7.55;100.00;100422.34;5346611;26;20444;-67
2024/04/25 10:32:54;;;;;;;19.83;6.20;;;;;;;8.43;100.00;100424.81;5346565;26;20019;-67
2024/04/25 10:35:19;;;;;;;19.58;6.20;;;;;;;8.50;100.00;100410.84;5346968;26;19997;-67
2024/04/25 10:37:45;;;;;;;18.88;6.20;;;;;;;8.55;100.00;100414.41;5346480;26;20005;-68
2024/04/25 10:40:14;;;;;;;19.48;5.55;;;;;;;8.23;100.00;100412.41;5346596;26;20027;-70
2024/04/25 10:42:40;;;;;;;17.63;5.30;;;;;;;7.73;100.00;100415.50;5346733;26;19996;-71
2024/04/25 10:45:07;;;;;;;12.45;4.10;;;;;;;7.32;100.00;100428.28;5346718;26;20335;-70
2024/04/25 10:47:33;;;;;;;16.20;4.82;;;;;;;6.71;100.00;100430.13;5346832;26;20092;-71
2024/04/25 10:49:58;;;;;;;17.83;5.40;;;;;;;5.79;100.00;100429.56;5346541;26;20426;-71
2024/04/25 10:52:24;;;;;;;18.65;5.90;;;;;;;5.49;100.00;100420.28;5346190;26;19997;-67
2024/04/25 10:54:50;;;;;;;18.73;6.55;;;;;;;5.45;100.00;100429.84;5344763;26;20015;-68
2024/04/25 10:57:15;;;;;;;18.77;6.72;;;;;;;5.37;100.00;100424.47;5346309;26;20004;-66
2024/04/25 10:59:41;;;;;;;18.38;5.93;;;;;;;5.78;100.00;100412.94;5346526;26;20019;-69
2024/04/25 11:02:08;;;;;;;19.05;6.20;;;;;;;5.87;100.00;100415.72;5346617;26;19996;-67
2024/04/25 11:04:34;;;;;;;19.05;6.03;;;;;;;6.32;100.00;100410.31;5346335;26;20001;-66
2024/04/25 11:07:01;;;;;;;18.13;5.85;;;;;;;6.79;100.00;100415.38;5346140;26;20432;-66
2024/04/25 11:09:26;;;;;;;18.80;5.45;;;;;;;7.20;100.00;100409.72;5346532;26;20024;-66
2024/04/25 11:11:52;;;;;;;18.80;5.28;;;;;;;7.58;100.00;100405.72;5345909;26;19996;-70
2024/04/25 11:14:17;;;;;;;18.55;5.00;;;;;;;7.89;100.00;100404.22;5346215;26;20007;-71